Time;durP1;ratioP1;P1;durP2;ratioP2;P2;SDS_P1;SDS_P2;PMS_P1;PMS_P2;Temp;Humidity;BMP_temperature;BMP_pressure;BME280_temperature;BME280_humidity;BME280_pressure;Samples;Min_cycle;Max_cycle;Signal;HPM_P1;HPM_P2
2023/03/02 00:01:32;;;;;;;32.17;16.50;;;;;;;4.11;56.15;100760.91;5035213;28;20076;-80
2023/03/02 00:04:01;;;;;;;26.70;15.63;;;;;;;4.10;55.84;100761.75;5052820;28;20056;-80
2023/03/02 00:06:30;;;;;;;30.95;17.20;;;;;;;4.07;55.71;100754.84;5052578;28;20092;-80
2023/03/02 00:09:01;;;;;;;28.42;16.25;;;;;;;4.04;56.15;100763.56;5052801;28;20140;-80
2023/03/02 00:11:30;;;;;;;31.67;17.42;;;;;;;4.04;55.93;100758.34;5052650;28;20436;-80
2023/03/02 00:13:57;;;;;;;30.25;16.95;;;;;;;4.02;55.92;100754.94;5052598;28;20045;-80
2023/03/02 00:16:24;;;;;;;29.65;16.40;;;;;;;4.00;56.42;100754.06;5051303;28;20133;-80
2023/03/02 00:18:50;;;;;;;30.63;16.10;;;;;;;4.00;56.26;100753.22;5052470;28;20186;-80
2023/03/02 00:21:17;;;;;;;30.48;17.05;;;;;;;3.97;56.68;100751.53;5052830;28;20060;-80
2023/03/02 00:23:43;;;;;;;32.25;17.13;;;;;;;3.96;56.57;100747.19;5052320;28;20152;-80
2023/03/02 00:26:10;;;;;;;33.78;17.33;;;;;;;3.94;56.96;100743.75;5052177;28;20049;-80
2023/03/02 00:28:36;;;;;;;35.22;18.00;;;;;;;3.94;56.92;100742.88;5052068;28;20574;-80
2023/03/02 00:31:04;;;;;;;30.35;16.73;;;;;;;3.91;56.79;100749.00;5052574;28;20132;-80
2023/03/02 00:33:32;;;;;;;30.67;17.27;;;;;;;3.89;56.84;100754.22;5052477;28;20045;-80
2023/03/02 00:35:58;;;;;;;35.13;17.95;;;;;;;3.88;57.25;100751.63;5051920;28;20055;-80
2023/03/02 00:38:26;;;;;;;34.15;19.00;;;;;;;3.86;57.26;100751.66;5051990;28;20053;-80
2023/03/02 00:40:54;;;;;;;30.30;16.75;;;;;;;3.84;57.15;100744.72;5052202;28;20501;-80
2023/03/02 00:43:26;;;;;;;31.30;17.67;;;;;;;3.83;56.93;100746.50;5052603;28;20049;-80
2023/03/02 00:45:54;;;;;;;30.75;16.67;;;;;;;3.80;57.22;100751.72;5034593;28;20085;-80
2023/03/02 00:48:20;;;;;;;30.60;16.42;;;;;;;3.77;57.13;100755.25;5052181;28;20383;-80
2023/03/02 00:50:47;;;;;;;31.60;16.95;;;;;;;3.75;56.99;100756.16;5051917;28;20516;-80
2023/03/02 00:53:13;;;;;;;35.20;16.58;;;;;;;3.73;57.04;100753.56;5052441;28;20048;-80
2023/03/02 00:55:40;;;;;;;31.80;17.60;;;;;;;3.71;57.32;100749.25;5033816;28;20055;-80
2023/03/02 00:58:06;;;;;;;34.22;18.65;;;;;;;3.68;57.75;100749.28;5051883;28;20067;-80
2023/03/02 01:00:34;;;;;;;32.50;17.40;;;;;;;3.69;57.97;100745.78;5051965;28;20075;-80
2023/03/02 01:03:00;;;;;;;35.17;19.30;;;;;;;3.68;57.84;100750.16;5051933;28;20118;-80
2023/03/02 01:05:27;;;;;;;37.38;19.38;;;;;;;3.69;57.94;100746.66;5051469;28;20382;-80
2023/03/02 01:07:54;;;;;;;37.88;20.23;;;;;;;3.69;58.29;100746.66;5050129;28;20045;-80
2023/03/02 01:10:20;;;;;;;37.42;19.10;;;;;;;3.72;58.29;100746.63;5033786;28;20053;-80
2023/03/02 01:12:47;;;;;;;36.83;20.48;;;;;;;3.74;58.40;100746.63;5051539;28;20548;-80
2023/03/02 01:15:13;;;;;;;38.42;20.48;;;;;;;3.76;58.60;100747.44;5051315;28;20048;-80
2023/03/02 01:17:41;;;;;;;35.67;20.30;;;;;;;3.77;58.57;100743.94;5051656;28;20049;-80
2023/03/02 01:20:09;;;;;;;38.75;20.48;;;;;;;3.79;58.60;100744.81;5051392;28;20504;-80
2023/03/02 01:22:36;;;;;;;39.28;20.20;;;;;;;3.82;58.56;100736.09;5033778;28;20053;-80
2023/03/02 01:25:03;;;;;;;59.92;23.13;;;;;;;3.85;59.04;100734.28;5050910;28;20436;-80
2023/03/02 01:27:29;;;;;;;48.42;22.15;;;;;;;3.88;59.08;100741.22;5051237;28;20139;-80
2023/03/02 01:29:56;;;;;;;45.78;22.02;;;;;;;3.90;58.89;100739.47;5051370;28;20049;-80
2023/03/02 01:32:22;;;;;;;88.25;21.95;;;;;;;3.93;59.00;100738.56;5051258;28;20398;-80
2023/03/02 01:34:49;;;;;;;40.42;20.02;;;;;;;3.94;58.95;100732.44;5051149;28;20071;-80
2023/03/02 01:37:16;;;;;;;44.40;19.67;;;;;;;3.95;58.91;100736.78;5050653;28;20045;-80
2023/03/02 01:39:42;;;;;;;38.95;20.15;;;;;;;3.95;58.75;100735.03;5050975;28;20045;-80
2023/03/02 01:42:09;;;;;;;49.40;19.67;;;;;;;3.96;58.84;100739.38;5051260;28;20053;-80
2023/03/02 01:44:47;;;;;;;36.35;18.85;;;;;;;3.94;59.83;100729.84;5050989;28;20056;-80
2023/03/02 01:47:22;;;;;;;34.38;18.13;;;;;;;3.95;59.63;100732.44;5050946;28;20059;-80
2023/03/02 01:49:57;;;;;;;39.30;19.45;;;;;;;3.97;59.53;100738.50;5051118;28;20057;-80
2023/03/02 01:52:25;;;;;;;41.35;20.13;;;;;;;3.97;59.11;100733.28;5051038;28;20410;-80
2023/03/02 01:54:57;;;;;;;39.72;19.95;;;;;;;3.95;59.07;100736.78;5050179;28;20410;-80
2023/03/02 01:57:31;;;;;;;51.85;19.40;;;;;;;3.94;59.34;100735.94;5050683;28;20486;-80
2023/03/02 02:00:07;;;;;;;38.78;17.60;;;;;;;3.95;59.78;100732.44;5050812;28;20103;-80
2023/03/02 02:02:35;;;;;;;57.35;17.92;;;;;;;3.96;58.47;100734.16;5033448;28;20056;-80
2023/03/02 02:05:02;;;;;;;50.17;18.40;;;;;;;3.95;58.95;100740.25;5032914;28;20460;-80
2023/03/02 02:07:29;;;;;;;51.20;17.75;;;;;;;3.92;58.38;100735.06;5050535;28;20057;-80
2023/03/02 02:09:56;;;;;;;58.85;17.17;;;;;;;3.89;58.43;100732.53;5050734;28;20100;-80
2023/03/02 02:12:22;;;;;;;53.25;17.55;;;;;;;3.85;58.96;100730.84;5049378;28;20099;-80
2023/03/02 02:14:50;;;;;;;65.20;17.67;;;;;;;3.82;58.75;100734.34;5050130;28;20045;-80
2023/03/02 02:17:17;;;;;;;66.85;17.55;;;;;;;3.80;58.98;100735.22;5050542;28;20132;-80
2023/03/02 02:19:50;;;;;;;57.95;18.05;;;;;;;3.78;58.88;100724.88;5050689;28;20056;-80
2023/03/02 02:22:43;;;;;;;38.60;12.18;;;;;;;3.75;59.66;100717.09;5050589;28;20048;-80
2023/03/02 02:25:32;;;;;;;33.08;15.75;;;;;;;3.74;59.89;100724.03;5009813;28;20060;-80
2023/03/02 02:28:01;;;;;;;33.35;16.83;;;;;;;3.76;58.93;100714.47;5050426;28;20569;-80
2023/03/02 02:30:28;;;;;;;31.20;16.50;;;;;;;3.74;58.84;100708.41;5050513;28;20076;-80
2023/03/02 02:32:57;;;;;;;31.67;17.45;;;;;;;3.72;58.62;100717.13;5050384;28;20080;-80
2023/03/02 02:35:27;;;;;;;56.38;19.98;;;;;;;3.67;59.22;100714.59;5050097;28;20130;-80
2023/03/02 02:38:01;;;;;;;51.65;18.13;;;;;;;3.64;59.22;100712.00;5049995;28;20088;-80
2023/03/02 02:40:57;;;;;;;33.88;16.10;;;;;;;3.60;59.28;100705.13;5032741;28;20049;-80
2023/03/02 02:43:26;;;;;;;33.88;14.70;;;;;;;3.58;58.87;100709.47;5050542;28;20504;-80
2023/03/02 02:45:56;;;;;;;30.85;16.13;;;;;;;3.53;59.26;100712.16;5049994;28;20085;-80
2023/03/02 02:48:25;;;;;;;26.90;14.68;;;;;;;3.50;59.06;100709.56;5032231;28;20053;-79
2023/03/02 02:53:31;;;;;;;33.95;16.08;;;;;;;3.46;59.39;100705.28;5047284;28;20053;-79
2023/03/02 02:55:59;;;;;;;31.85;15.88;;;;;;;3.43;58.95;100702.75;5032057;28;20095;-80
2023/03/02 02:58:39;;;;;;;49.55;16.30;;;;;;;3.38;59.71;100703.66;5049605;28;20067;-81
2023/03/02 03:01:06;;;;;;;33.22;14.43;;;;;;;3.36;59.22;100704.53;5049984;28;20053;-80
2023/03/02 03:03:36;;;;;;;30.90;14.52;;;;;;;3.33;59.86;100707.19;5049954;28;20489;-79
2023/03/02 03:06:07;;;;;;;58.80;16.75;;;;;;;3.31;59.53;100708.94;5049705;28;20053;-80
2023/03/02 03:08:40;;;;;;;25.80;13.93;;;;;;;3.26;59.63;100707.22;5052093;28;20056;-79
2023/03/02 03:11:08;;;;;;;27.13;12.90;;;;;;;3.26;59.19;100698.59;5053785;28;20060;-80
2023/03/02 03:13:36;;;;;;;27.80;13.20;;;;;;;3.24;59.21;100697.72;5036147;28;20161;-80
2023/03/02 03:16:06;;;;;;;30.40;13.95;;;;;;;3.22;59.56;100697.75;5053447;28;20052;-80
2023/03/02 03:18:33;;;;;;;32.08;13.48;;;;;;;3.20;59.15;100696.03;5035435;28;20493;-80
2023/03/02 03:20:59;;;;;;;40.90;13.98;;;;;;;3.19;59.45;100699.53;5053537;28;20131;-80
2023/03/02 03:23:26;;;;;;;25.55;13.60;;;;;;;3.18;59.85;100701.25;5053787;28;20064;-80
2023/03/02 03:25:52;;;;;;;36.03;13.63;;;;;;;3.19;59.73;100689.13;5053295;28;20140;-80
2023/03/02 03:28:19;;;;;;;40.08;12.80;;;;;;;3.18;59.43;100693.44;5052925;28;20055;-80
2023/03/02 03:30:45;;;;;;;31.70;13.27;;;;;;;3.17;59.92;100696.09;5053500;28;20049;-80
2023/03/02 03:33:12;;;;;;;33.15;13.73;;;;;;;3.18;60.15;100695.22;5035799;28;20056;-81
2023/03/02 03:35:39;;;;;;;25.55;12.80;;;;;;;3.16;60.03;100679.59;5052987;28;20045;-80
2023/03/02 03:38:06;;;;;;;23.55;12.65;;;;;;;3.16;59.67;100692.63;5035234;28;20494;-81
2023/03/02 03:40:33;;;;;;;28.25;13.20;;;;;;;3.17;59.71;100688.28;5053200;28;20049;-80
2023/03/02 03:43:01;;;;;;;40.83;13.57;;;;;;;3.16;59.80;100684.81;5053439;28;20059;-80
2023/03/02 03:45:28;;;;;;;50.80;12.93;;;;;;;3.16;59.52;100694.34;5053054;28;20087;-81
2023/03/02 03:47:56;;;;;;;46.30;13.15;;;;;;;3.12;60.02;100678.78;5035254;28;20563;-80
2023/03/02 03:50:23;;;;;;;34.60;12.88;;;;;;;3.10;59.84;100684.91;5052840;28;20053;-81
2023/03/02 03:52:50;;;;;;;34.78;13.50;;;;;;;3.08;59.79;100686.63;5052861;28;20045;-80
2023/03/02 03:55:17;;;;;;;31.40;13.98;;;;;;;3.06;60.04;100688.41;5052434;28;20048;-81
2023/03/02 03:57:43;;;;;;;92.38;15.40;;;;;;;3.04;60.32;100691.03;5035026;28;20049;-81
2023/03/02 04:00:16;;;;;;;40.45;13.80;;;;;;;3.00;60.50;100695.38;5035200;28;20063;-80
2023/03/02 04:02:43;;;;;;;26.65;13.35;;;;;;;3.01;60.04;100691.03;5052836;28;20056;-80
2023/03/02 04:05:10;;;;;;;30.55;14.05;;;;;;;3.03;60.42;100683.22;5052364;28;20053;-80
2023/03/02 04:07:37;;;;;;;38.10;15.02;;;;;;;3.05;60.17;100691.84;5034064;28;20127;-80
2023/03/02 04:10:06;;;;;;;38.65;14.88;;;;;;;3.04;60.32;100692.75;5052637;28;20061;-79
2023/03/02 04:12:35;;;;;;;32.70;13.63;;;;;;;3.06;60.56;100696.22;5034938;28;20135;-81
2023/03/02 04:15:03;;;;;;;45.75;14.90;;;;;;;3.05;60.46;100692.72;5052260;28;20049;-80
2023/03/02 04:17:29;;;;;;;31.50;14.52;;;;;;;3.07;60.52;100700.53;5034693;28;20450;-80
2023/03/02 04:19:56;;;;;;;44.63;14.65;;;;;;;3.08;60.63;100699.63;5052008;28;20136;-79
2023/03/02 04:22:22;;;;;;;29.58;14.40;;;;;;;3.08;60.56;100697.91;5052388;28;20057;-80
2023/03/02 04:24:49;;;;;;;27.95;13.88;;;;;;;3.10;60.69;100697.91;5034586;28;20063;-80
2023/03/02 04:27:16;;;;;;;31.45;14.70;;;;;;;3.12;61.14;100693.53;5051898;28;20053;-80
2023/03/02 04:29:44;;;;;;;29.67;14.57;;;;;;;3.13;60.98;100701.31;5034427;28;20095;-80
2023/03/02 04:32:13;;;;;;;39.08;14.75;;;;;;;3.15;61.15;100697.84;5034564;28;20518;-80
2023/03/02 04:34:40;;;;;;;41.17;13.65;;;;;;;3.16;60.78;100695.22;5052104;28;20049;-81
2023/03/02 04:37:06;;;;;;;37.85;15.32;;;;;;;3.18;61.15;100692.59;5051334;28;20052;-81
2023/03/02 04:39:33;;;;;;;35.20;15.60;;;;;;;3.21;61.05;100695.19;5052222;28;20147;-80
2023/03/02 04:41:59;;;;;;;34.33;15.82;;;;;;;3.24;61.07;100697.72;5034320;28;20045;-80
2023/03/02 04:44:26;;;;;;;36.13;15.70;;;;;;;3.25;60.97;100687.31;5034311;28;20053;-80
2023/03/02 04:46:53;;;;;;;35.10;15.65;;;;;;;3.26;60.98;100691.63;5051134;28;20139;-80
2023/03/02 04:49:19;;;;;;;54.25;14.93;;;;;;;3.27;60.86;100695.09;5051809;28;20131;-81
2023/03/02 04:51:48;;;;;;;32.20;15.20;;;;;;;3.27;60.89;100687.28;5051747;28;20481;-80
2023/03/02 04:54:20;;;;;;;53.28;14.50;;;;;;;3.26;61.47;100681.22;5051964;28;20132;-80
2023/03/02 04:56:47;;;;;;;79.97;15.43;;;;;;;3.27;61.19;100676.88;5033526;28;20103;-80
2023/03/02 04:59:15;;;;;;;32.25;16.08;;;;;;;3.27;61.47;100684.69;5051879;28;20128;-80
2023/03/02 05:01:43;;;;;;;68.20;15.73;;;;;;;3.26;61.26;100675.16;5051664;28;20059;-80
2023/03/02 05:04:10;;;;;;;54.13;15.68;;;;;;;3.27;61.01;100671.69;5051557;28;20077;-80
2023/03/02 05:06:37;;;;;;;39.53;15.18;;;;;;;3.28;61.45;100675.16;5051147;28;20049;-80
2023/03/02 05:09:04;;;;;;;42.85;15.45;;;;;;;3.29;61.67;100675.09;5051433;28;20075;-79
2023/03/02 05:11:31;;;;;;;37.03;14.25;;;;;;;3.33;61.56;100673.34;5051581;28;20052;-80
2023/03/02 05:14:01;;;;;;;30.90;15.73;;;;;;;3.33;61.25;100671.59;5051726;28;20492;-80
2023/03/02 05:16:30;;;;;;;50.33;16.77;;;;;;;3.34;61.56;100667.25;5050945;28;20057;-80
2023/03/02 05:19:00;;;;;;;56.72;16.65;;;;;;;3.35;61.33;100668.97;5051591;28;20131;-79
2023/03/02 05:21:27;;;;;;;65.70;18.40;;;;;;;3.36;61.79;100666.34;5051171;28;20045;-80
2023/03/02 05:23:53;;;;;;;46.53;18.08;;;;;;;3.37;61.45;100672.44;5051343;28;20049;-80
2023/03/02 05:26:20;;;;;;;36.15;16.05;;;;;;;3.37;61.46;100668.06;5033129;28;20504;-80
2023/03/02 05:28:46;;;;;;;36.47;15.32;;;;;;;3.37;61.26;100672.44;5032957;28;20049;-81
2023/03/02 05:31:28;;;;;;;36.63;16.95;;;;;;;3.32;61.87;100669.88;5050232;28;20057;-80
2023/03/02 05:33:55;;;;;;;36.10;14.38;;;;;;;3.34;61.69;100668.13;5051198;28;20328;-80
2023/03/02 05:36:22;;;;;;;38.08;16.35;;;;;;;3.34;61.16;100667.25;5050810;28;20080;-81
2023/03/02 05:38:49;;;;;;;44.88;16.15;;;;;;;3.33;61.68;100665.53;5032710;28;20060;-81
2023/03/02 05:41:15;;;;;;;30.90;14.90;;;;;;;3.33;61.23;100668.16;5033160;28;20560;-80
2023/03/02 05:43:42;;;;;;;37.20;15.02;;;;;;;3.33;61.59;100668.16;5050976;28;20055;-81
2023/03/02 05:46:09;;;;;;;44.45;14.80;;;;;;;3.32;61.33;100664.66;5050697;28;20084;-80
2023/03/02 05:48:36;;;;;;;33.10;15.30;;;;;;;3.32;61.37;100664.66;5050383;28;20049;-79
2023/03/02 05:51:03;;;;;;;51.30;15.40;;;;;;;3.31;61.97;100673.38;5050754;28;20053;-80
2023/03/02 05:53:29;;;;;;;32.70;15.50;;;;;;;3.31;61.63;100670.75;5049719;28;20144;-79
2023/03/02 05:55:56;;;;;;;54.70;15.85;;;;;;;3.32;62.08;100671.63;5050457;28;20531;-80
2023/03/02 05:58:22;;;;;;;68.28;15.75;;;;;;;3.32;61.60;100669.03;5050082;28;20052;-80
2023/03/02 06:00:49;;;;;;;52.88;15.25;;;;;;;3.32;61.74;100669.88;5050597;28;20508;-80
2023/03/02 06:03:15;;;;;;;55.88;15.30;;;;;;;3.32;61.65;100675.09;5050656;28;20156;-80
2023/03/02 06:05:42;;;;;;;39.30;14.18;;;;;;;3.30;61.35;100668.19;5050126;28;20048;-80
2023/03/02 06:08:09;;;;;;;42.90;14.27;;;;;;;3.28;61.67;100675.16;5032223;28;20045;-80
2023/03/02 06:10:37;;;;;;;44.45;15.15;;;;;;;3.26;61.67;100685.56;5050434;28;20063;-80
2023/03/02 06:13:03;;;;;;;41.50;13.88;;;;;;;3.24;61.97;100682.13;5050462;28;20087;-80
2023/03/02 06:15:30;;;;;;;89.20;17.20;;;;;;;3.22;62.06;100681.28;5050127;28;20417;-80
2023/03/02 06:17:56;;;;;;;54.15;15.07;;;;;;;3.20;61.80;100683.91;5050332;28;20059;-80
2023/03/02 06:20:23;;;;;;;39.20;14.65;;;;;;;3.21;62.45;100684.78;5050335;28;20044;-80
2023/03/02 06:22:50;;;;;;;58.03;14.10;;;;;;;3.22;62.00;100686.50;5050476;28;20045;-80
2023/03/02 06:25:22;;;;;;;24.40;14.10;;;;;;;3.22;62.88;100695.13;5032227;28;20144;-80
2023/03/02 06:27:52;;;;;;;29.83;14.07;;;;;;;3.25;62.44;100695.09;5050158;28;20095;-80
2023/03/02 06:30:24;;;;;;;50.67;13.93;;;;;;;3.25;62.40;100702.91;5050371;28;20292;-81
2023/03/02 06:32:50;;;;;;;55.45;14.93;;;;;;;3.27;61.97;100697.69;5050802;28;20425;-80
2023/03/02 06:35:17;;;;;;;52.15;13.80;;;;;;;3.24;61.99;100698.59;5049932;28;20516;-80
2023/03/02 06:37:44;;;;;;;45.13;15.88;;;;;;;3.23;61.92;100709.03;5049835;28;20057;-80
2023/03/02 06:40:12;;;;;;;81.30;16.70;;;;;;;3.21;62.17;100711.63;5050449;28;20057;-81
2023/03/02 06:42:40;;;;;;;70.97;16.92;;;;;;;3.21;62.89;100710.78;5053109;28;20052;-80
2023/03/02 06:45:09;;;;;;;36.47;15.70;;;;;;;3.21;62.92;100714.22;5053788;28;20658;-80
2023/03/02 06:47:35;;;;;;;37.20;15.63;;;;;;;3.23;62.57;100720.31;5054247;28;20045;-80
2023/03/02 06:50:02;;;;;;;44.70;16.90;;;;;;;3.26;62.61;100720.25;5054028;28;20053;-80
2023/03/02 06:52:29;;;;;;;41.47;15.07;;;;;;;3.30;62.41;100712.41;5054174;28;20489;-80
2023/03/02 06:54:55;;;;;;;53.55;15.90;;;;;;;3.32;62.96;100716.72;5052415;28;20485;-80
2023/03/02 06:57:22;;;;;;;45.88;16.73;;;;;;;3.34;62.78;100708.91;5053756;28;20061;-80
2023/03/02 06:59:49;;;;;;;45.33;16.80;;;;;;;3.37;63.17;100716.69;5053960;28;20045;-80
2023/03/02 07:02:15;;;;;;;41.20;18.00;;;;;;;3.38;62.84;100705.38;5054132;28;20044;-80
2023/03/02 07:04:41;;;;;;;61.03;17.40;;;;;;;3.40;62.50;100711.41;5053826;28;20405;-80
2023/03/02 07:07:08;;;;;;;52.65;15.55;;;;;;;3.42;62.82;100716.59;5053093;28;20485;-80
2023/03/02 07:09:35;;;;;;;46.25;15.90;;;;;;;3.43;62.96;100715.75;5054012;28;20143;-81
2023/03/02 07:12:01;;;;;;;27.73;15.15;;;;;;;3.43;62.71;100708.78;5053962;28;20136;-80
2023/03/02 07:14:28;;;;;;;43.17;15.50;;;;;;;3.45;62.59;100712.25;5053828;28;20083;-80
2023/03/02 07:16:56;;;;;;;55.85;16.23;;;;;;;3.46;63.19;100711.34;5052977;28;20441;-80
2023/03/02 07:19:23;;;;;;;35.47;15.15;;;;;;;3.49;63.11;100718.28;5053519;28;20131;-80
2023/03/02 07:21:49;;;;;;;40.50;15.45;;;;;;;3.50;63.21;100715.66;5053436;28;20148;-80
2023/03/02 07:24:16;;;;;;;74.53;17.25;;;;;;;3.53;62.88;100712.16;5053655;28;20059;-81
2023/03/02 07:26:42;;;;;;;66.03;15.90;;;;;;;3.54;62.81;100710.41;5052925;28;20096;-81
2023/03/02 07:29:09;;;;;;;37.33;15.40;;;;;;;3.54;62.99;100715.63;5053389;28;20049;-80
2023/03/02 07:31:35;;;;;;;54.92;16.23;;;;;;;3.55;63.11;100705.16;5053291;28;20053;-80
2023/03/02 07:34:02;;;;;;;45.03;15.32;;;;;;;3.57;63.17;100705.16;5053330;28;20045;-80
2023/03/02 07:36:28;;;;;;;53.72;15.73;;;;;;;3.59;63.36;100706.00;5052909;28;20520;-80
2023/03/02 07:38:55;;;;;;;48.42;16.35;;;;;;;3.61;63.41;100707.72;5053110;28;20088;-81
2023/03/02 07:41:21;;;;;;;52.65;16.50;;;;;;;3.63;63.24;100712.91;5053289;28;20067;-80
2023/03/02 07:43:48;;;;;;;61.60;16.27;;;;;;;3.64;62.96;100706.81;5053384;28;20102;-79
2023/03/02 07:46:15;;;;;;;54.38;17.10;;;;;;;3.65;63.21;100700.72;5052700;28;20060;-79
2023/03/02 07:48:41;;;;;;;58.13;16.23;;;;;;;3.65;63.16;100698.09;5052571;28;20052;-81
2023/03/02 07:51:08;;;;;;;33.55;15.68;;;;;;;3.67;63.66;100698.09;5052926;28;20049;-80
2023/03/02 07:53:34;;;;;;;96.88;18.35;;;;;;;3.69;63.84;100693.72;5052291;28;20049;-81
2023/03/02 07:56:06;;;;;;;39.17;15.30;;;;;;;3.70;64.16;100692.84;5052800;28;20084;-80
2023/03/02 07:58:32;;;;;;;44.05;17.58;;;;;;;3.74;63.45;100699.75;5052553;28;20071;-81
2023/03/02 08:01:00;;;;;;;39.20;15.07;;;;;;;3.77;63.13;100704.88;5053000;28;20049;-80
2023/03/02 08:03:27;;;;;;;26.33;15.43;;;;;;;3.78;63.64;100701.41;5052916;28;20103;-80
2023/03/02 08:05:54;;;;;;;27.55;14.77;;;;;;;3.80;63.22;100706.59;5052260;28;20063;-81
2023/03/02 08:08:20;;;;;;;53.20;15.50;;;;;;;3.81;63.29;100703.13;5052388;28;20091;-80
2023/03/02 08:10:47;;;;;;;41.97;16.60;;;;;;;3.82;63.23;100694.41;5052866;28;20041;-81
2023/03/02 08:13:13;;;;;;;32.95;15.45;;;;;;;3.83;63.00;100699.63;5052504;28;20055;-80
2023/03/02 08:15:40;;;;;;;35.33;16.30;;;;;;;3.84;63.53;100701.31;5052082;28;20059;-80
2023/03/02 08:18:06;;;;;;;51.65;15.40;;;;;;;3.85;63.21;100699.59;5052229;28;20055;-80
2023/03/02 08:20:33;;;;;;;56.97;16.25;;;;;;;3.87;63.51;100703.91;5052623;28;20059;-80
2023/03/02 08:22:59;;;;;;;33.47;15.82;;;;;;;3.89;63.73;100704.72;5052367;28;20049;-80
2023/03/02 08:25:26;;;;;;;36.05;15.68;;;;;;;3.93;63.89;100700.34;5052112;28;20142;-81
2023/03/02 08:27:52;;;;;;;90.95;17.83;;;;;;;3.97;63.73;100702.03;5034240;28;20076;-81
2023/03/02 08:30:19;;;;;;;48.33;18.05;;;;;;;4.01;63.50;100693.25;5052427;28;20049;-80
2023/03/02 08:32:45;;;;;;;93.70;18.77;;;;;;;4.06;63.81;100694.94;5052504;28;20095;-81
2023/03/02 08:35:12;;;;;;;75.22;17.05;;;;;;;4.11;63.79;100701.81;5052059;28;20132;-81
2023/03/02 08:37:38;;;;;;;60.47;16.10;;;;;;;4.14;63.52;100699.16;5051866;28;20059;-81
2023/03/02 08:40:06;;;;;;;56.55;16.23;;;;;;;4.17;63.25;100703.47;5052228;28;20084;-81
2023/03/02 08:42:32;;;;;;;63.33;16.60;;;;;;;4.21;63.47;100697.31;5034279;28;20053;-80
2023/03/02 08:44:59;;;;;;;39.38;15.85;;;;;;;4.23;63.54;100705.97;5051655;28;20148;-81
2023/03/02 08:47:25;;;;;;;30.45;15.55;;;;;;;4.25;63.47;100700.75;5051910;28;20057;-81
2023/03/02 08:52:33;;;;;;;40.53;15.43;;;;;;;4.30;63.42;100691.97;4990328;28;20050;-78
2023/03/02 08:55:00;;;;;;;35.65;17.00;;;;;;;4.35;63.49;100698.84;4992330;28;20054;-80
2023/03/02 08:57:29;;;;;;;24.27;15.65;;;;;;;4.38;63.77;100698.81;4991854;28;20451;-78
2023/03/02 08:59:55;;;;;;;27.38;15.60;;;;;;;4.41;63.52;100704.81;4992454;28;20050;-78
2023/03/02 09:02:22;;;;;;;29.83;16.25;;;;;;;4.43;63.46;100690.03;4992690;28;20050;-78
2023/03/02 09:04:48;;;;;;;32.08;17.00;;;;;;;4.48;63.70;100699.53;4992408;28;20054;-78
2023/03/02 09:07:16;;;;;;;27.40;15.50;;;;;;;4.51;63.81;100702.94;4991800;28;20089;-78
2023/03/02 09:09:43;;;;;;;29.80;15.48;;;;;;;4.57;63.84;100695.00;4992282;28;20060;-80
2023/03/02 09:12:09;;;;;;;32.90;17.02;;;;;;;4.64;63.30;100694.91;4992755;28;20054;-78
2023/03/02 09:14:36;;;;;;;28.42;16.55;;;;;;;4.68;63.70;100688.75;4992134;28;20051;-78
2023/03/02 09:17:02;;;;;;;32.90;16.25;;;;;;;4.72;63.46;100693.03;4991907;28;20082;-79
2023/03/02 09:19:29;;;;;;;36.13;16.30;;;;;;;4.76;63.44;100686.88;4992216;28;20047;-79
2023/03/02 09:21:56;;;;;;;34.42;16.63;;;;;;;4.80;63.31;100679.84;4992331;28;20120;-78
2023/03/02 09:24:22;;;;;;;47.90;16.52;;;;;;;4.83;63.31;100687.63;4992140;28;20073;-78
2023/03/02 09:26:49;;;;;;;35.83;16.27;;;;;;;4.86;62.89;100687.56;4991580;28;20046;-78
2023/03/02 09:29:15;;;;;;;31.63;16.67;;;;;;;4.87;63.08;100680.59;4991839;28;20499;-78
2023/03/02 09:31:42;;;;;;;23.85;15.05;;;;;;;4.87;63.05;100675.38;4992367;28;20069;-78
2023/03/02 09:34:08;;;;;;;28.83;15.63;;;;;;;4.89;63.54;100684.03;4974796;28;20054;-78
2023/03/02 09:36:35;;;;;;;33.22;16.13;;;;;;;4.92;63.34;100690.06;4991428;28;20324;-78
2023/03/02 09:39:07;;;;;;;26.05;16.08;;;;;;;4.96;63.30;100677.81;4991260;28;20130;-78
2023/03/02 09:42:06;;;;;;;24.98;15.60;;;;;;;4.98;62.95;100691.72;4990142;28;20108;-78
2023/03/02 09:44:58;;;;;;;25.05;15.52;;;;;;;5.02;62.90;100685.53;4988762;28;20543;-78
2023/03/02 09:47:51;;;;;;;26.45;15.32;;;;;;;5.07;62.83;100694.13;4974191;28;20388;-78
2023/03/02 09:50:34;;;;;;;27.33;16.33;;;;;;;5.12;62.99;100695.81;4992009;28;20121;-78
2023/03/02 09:53:38;;;;;;;28.92;17.08;;;;;;;5.16;63.06;100697.47;4991904;28;20129;-78
2023/03/02 09:56:13;;;;;;;35.30;17.48;;;;;;;5.23;63.03;100699.03;4984323;28;20058;-78
2023/03/02 09:58:41;;;;;;;33.63;16.70;;;;;;;5.27;63.05;100698.09;4974350;28;20061;-78
2023/03/02 10:01:20;;;;;;;25.92;16.23;;;;;;;5.29;62.63;100703.28;4991576;28;20062;-78
2023/03/02 10:03:55;;;;;;;24.45;14.98;;;;;;;5.31;62.54;100698.91;4991897;28;20054;-78
2023/03/02 10:06:25;;;;;;;25.88;15.85;;;;;;;5.33;62.63;100695.38;4974025;28;20050;-78
2023/03/02 10:08:52;;;;;;;27.40;16.02;;;;;;;5.36;62.67;100699.69;4990930;28;20101;-78
2023/03/02 10:11:28;;;;;;;26.98;16.17;;;;;;;5.34;62.13;100702.31;4991475;28;20478;-79
2023/03/02 10:14:03;;;;;;;29.15;15.70;;;;;;;5.35;61.87;100698.81;4991554;28;20062;-78
2023/03/02 10:16:36;;;;;;;25.23;15.32;;;;;;;5.34;61.76;100702.31;4990576;28;20101;-78
2023/03/02 10:19:24;;;;;;;25.02;14.63;;;;;;;5.31;61.85;100701.53;4972537;28;20100;-78
2023/03/02 10:22:09;;;;;;;23.20;14.18;;;;;;;5.30;61.94;100703.28;4990917;28;20046;-78
2023/03/02 10:24:47;;;;;;;25.00;14.10;;;;;;;5.31;62.21;100699.75;4990744;28;20050;-78
2023/03/02 10:27:24;;;;;;;24.55;14.75;;;;;;;5.35;62.54;100701.41;4990540;28;20046;-78
2023/03/02 10:30:09;;;;;;;25.15;15.10;;;;;;;5.38;63.00;100697.88;4991176;28;20526;-78
2023/03/02 10:32:42;;;;;;;23.88;14.63;;;;;;;5.42;62.53;100703.94;4991428;28;20058;-78
2023/03/02 10:35:21;;;;;;;24.88;15.50;;;;;;;5.47;62.88;100704.69;4990933;28;20104;-78
2023/03/02 10:37:58;;;;;;;25.13;16.33;;;;;;;5.58;63.25;100699.25;4998863;28;20054;-78
2023/03/02 10:40:44;;;;;;;26.95;16.52;;;;;;;5.68;63.02;100694.69;5010755;28;20473;-78
2023/03/02 10:43:30;;;;;;;23.77;15.25;;;;;;;5.83;63.73;100696.94;5010799;28;20534;-78
2023/03/02 10:46:00;;;;;;;23.63;14.68;;;;;;;6.02;64.04;100693.91;5009440;28;20050;-78
2023/03/02 10:48:28;;;;;;;26.75;15.88;;;;;;;6.21;63.82;100693.53;4991570;28;20566;-78
2023/03/02 10:50:57;;;;;;;25.73;15.25;;;;;;;6.36;63.99;100693.16;4991549;28;20046;-78
2023/03/02 10:53:24;;;;;;;31.15;16.90;;;;;;;6.54;64.83;100688.38;4977765;28;20061;-78
2023/03/02 10:55:52;;;;;;;25.17;16.45;;;;;;;6.74;64.89;100687.88;4990675;28;20056;-78
2023/03/02 10:58:21;;;;;;;23.67;15.40;;;;;;;6.97;64.22;100693.38;4990932;28;20137;-78
2023/03/02 11:01:03;;;;;;;22.63;15.15;;;;;;;7.16;62.43;100688.50;4990918;28;20057;-78
2023/03/02 11:03:31;;;;;;;23.17;14.93;;;;;;;7.36;62.79;100695.81;4991188;28;20052;-78
2023/03/02 11:06:17;;;;;;;27.40;15.80;;;;;;;7.44;60.86;100690.34;4990556;28;20562;-78
2023/03/02 11:08:43;;;;;;;22.77;14.77;;;;;;;7.56;61.17;100697.00;4990654;28;20388;-78
2023/03/02 11:11:21;;;;;;;24.52;15.02;;;;;;;7.56;59.89;100687.38;4990703;28;20058;-78
2023/03/02 11:13:47;;;;;;;23.92;15.98;;;;;;;7.65;61.44;100691.50;4973613;28;20090;-78
2023/03/02 11:16:17;;;;;;;26.33;15.25;;;;;;;7.71;60.64;100692.19;4990819;28;20054;-78
2023/03/02 11:18:50;;;;;;;21.85;14.68;;;;;;;7.77;60.39;100687.63;4990672;28;20054;-78
2023/03/02 11:21:27;;;;;;;22.33;15.00;;;;;;;7.84;60.11;100688.31;4991284;28;20051;-78
2023/03/02 11:24:01;;;;;;;22.60;15.02;;;;;;;7.89;59.79;100689.00;4990820;28;20062;-78
2023/03/02 11:26:43;;;;;;;21.00;14.75;;;;;;;7.94;59.19;100687.13;4973252;28;20051;-78
2023/03/02 11:29:09;;;;;;;23.67;14.93;;;;;;;8.05;60.67;100684.19;4992454;28;20057;-78
2023/03/02 11:31:44;;;;;;;21.25;14.88;;;;;;;8.11;59.60;100692.75;4994336;28;20052;-78